Sie sind vermutlich noch nicht im Forum angemeldet - Klicken Sie hier um sich kostenlos anzumelden  

Synchrondatenbank (von Arne Kaul) | Deutsche Synchronkartei | Seriensynchron - SeSyDaB | dubDB | Die vergessenen Filme || Datenschutz
Sie können sich hier anmelden
Dieses Forum hat 982 Themen
und zur Zeit 15.615 Beiträge
Sie haben keine Schreibrechte
 Computer- & Videospiele  »Neues Thema erstellen«
Forum Information
   Betreff Absender Antworten Zugriffe Letzter Beitrag
Divinity 2 - The Dragon Knight Saga Alamar 2 1.613 24.11.2010 01:14
Myst V: End of Ages (2005) Kirk20 0 346 23.11.2010 14:50
Top Gun: Fire at Will! (1996) Kirk20 0 595 23.11.2010 12:38
Captain Buzz Lightyear – Star Command (2000) Kirk20 5 408 21.11.2010 16:35
Harry Potter und der Gefangene von Askaban (2004) Kirk20 1 2.512 18.11.2010 20:17
Star Trek: Legacy (2006) Kirk20 5 588 18.11.2010 15:04
Fenimore Fillmore: The Westerner (2004) Kirk20 1 998 17.11.2010 21:42
Oben (2009) Kirk20 1 400 14.11.2010 21:45
Disneys Donald Duck: Phantomias - Platyrhynchos Kineticus (2002) Kirk20 0 776 14.11.2010 19:49
Tony Tough and the Night of Roasted Moths (2003) Kirk20 0 352 13.11.2010 20:17
Command & Conquer: Alarmstufe Rot 3 (2008) (1, 2, 3) Commander 33 3.202 13.11.2010 18:27
Batman Begins (2005) Kirk20 1 469 13.11.2010 12:57
Darkstar One (2006) Kirk20 1 1.390 12.11.2010 19:39
Lands of Lore III (1999) Kirk20 0 1.150 11.11.2010 16:15
Der Herr der Ringe: Die Abenteuer von Aragorn (2010) Kirk20 10 1.071 05.11.2010 20:10
Professor Layton und die verlorene Zukunft Alamar 3 955 05.11.2010 17:07
James Bond 007: Blood Stone (2010) Kirk20 6 1.025 04.11.2010 11:48
Disneys Aladdin: Nasiras Rache (2001) Kirk20 3 619 28.10.2010 18:30
G-Police (1997) Kirk20 0 744 28.10.2010 18:15
Wer wird Millionär? (2000) Kirk20 1 578 28.10.2010 17:36
Rome Total War Synchronstimmen Plautus 2 333 22.10.2010 19:03
Call of Juarez: Bound in Blood Topper Harley 6 978 21.10.2010 15:32
Ballerburg (2001) Persian 0 375 21.10.2010 10:08
Ghost in the Shell (1997) Kirk20 4 561 20.10.2010 05:02
Disneys Hercules (1997) Kirk20 5 1.233 19.10.2010 13:50
Disneys Tarzan (1999) Kirk20 0 399 18.10.2010 23:43
God of War 1 + 2 (Videospiele) Metro 12 2.089 18.10.2010 23:08
Disneys Dinosaurier (2000) Kirk20 0 335 17.10.2010 19:39
Berlin Connection (1998) Kirk20 0 1.938 17.10.2010 18:46
Ceville (2009) lysander 6 706 17.10.2010 13:34
Deus Ex: Invisible War (2003) Kirk20 4 1.563 17.10.2010 00:18
Kane & Lynch 2: Dog Days (1, 2) Topper Harley 22 1.911 16.10.2010 23:57
KnightShift (2003) Alamar 2 1.033 15.10.2010 21:32
Rayman 3: Hoodlum Havoc (2003) Kirk20 1 1.124 14.10.2010 16:10
Star Trek: Der Aufstand (1999) Kirk20 5 573 13.10.2010 17:31
Buried in Time: Verschollen in der Zeit (1995) Kirk20 2 933 10.10.2010 01:13
Gothic (2001) SFC 12 2.685 09.10.2010 15:45
Gothic 3 (2006) SFC 5 1.209 06.10.2010 19:07
The Nomad Soul (1999) Kirk20 0 481 05.10.2010 23:24
Wolfenstein (2009) (1, 2) Kirk20 15 1.843 01.10.2010 20:36
 Sprung Seite « zurück  1 - 13  14  15  16  17  18  19  20 - 25  weiter »

Farb-Legende: blau = Spekulation, orange = Trailer-Besetzung, grün = endgültige Besetzung, rot = Korrektur/Ergänzung zur endgültigen Besetzung


Wir lieben Synchron.
Erreichbar unter
215072.homepagemodules.de -- forum.serien-synchron.de

Weitere Smileys auf www.smilie-harvester.de


Xobor Forum Software von Xobor | Forum, Fotos, Chat und mehr mit Xobor
Datenschutz